Alleghany, Virginia
Current Conditions -  °F | °C
As of 5:55 AM on Wednesday 26 Nov 2014 (Local Time) from KHSP Reporting Station
Heavy Snow Heavy Snow  
Wind Chill: 32°   Ceiling: 200
Heat Index: 32°   Visibility: 0.25mi
Dew Point: 32°   Wind: 3mph
Humidity: 100%   Direction: 80°E
Pressure: 29.93"   Gusts: NA
Location:  37.7731°N, 80.0632°W
Report Text: KHSP 261055Z AUTO 08003KT 1/4SM +SN OVC002 00/00 A2993 RMK AO2 T00020002
Loading
Personal Weather Stations






























Interactive Weather Map New forecast layout! Learn more

10-Day Weather Forecast

Advertisements
Track Severe Weather on mobile